Time;durP1;ratioP1;P1;durP2;ratioP2;P2;SDS_P1;SDS_P2;PMS_P1;PMS_P2;Temp;Humidity;BMP_temperature;BMP_pressure;BME280_temperature;BME280_humidity;BME280_pressure;Samples;Min_cycle;Max_cycle;Signal;HPM_P1;HPM_P2
2021/10/29 00:01:49;;;;;;;11.35;6.65;;;;;;;9.66;89.71;100928.53;5072058;28;20024;-59
2021/10/29 00:04:15;;;;;;;11.68;7.13;;;;;;;9.57;89.95;100929.75;5072344;28;20033;-62
2021/10/29 00:06:40;;;;;;;10.13;6.82;;;;;;;9.54;90.75;100923.72;5072271;28;20021;-60
2021/10/29 00:09:06;;;;;;;13.57;7.30;;;;;;;9.52;91.26;100932.56;5070847;28;20358;-59
2021/10/29 00:11:31;;;;;;;14.02;8.55;;;;;;;9.54;91.11;100926.38;5076306;28;20375;-60
2021/10/29 00:13:57;;;;;;;11.80;7.47;;;;;;;9.56;91.20;100927.19;5076388;28;20035;-62
2021/10/29 00:16:22;;;;;;;13.02;8.20;;;;;;;9.60;90.68;100920.84;5076023;28;20029;-63
2021/10/29 00:18:48;;;;;;;16.92;9.63;;;;;;;9.61;90.73;100925.22;5073929;28;20021;-59
2021/10/29 00:21:13;;;;;;;17.98;9.20;;;;;;;9.65;90.33;100924.16;5074133;28;20040;-60
2021/10/29 00:23:38;;;;;;;18.27;10.13;;;;;;;9.66;89.77;100923.25;5076161;28;20423;-60
2021/10/29 00:26:04;;;;;;;14.25;8.35;;;;;;;9.67;89.74;100919.69;5076312;28;20020;-59
2021/10/29 00:28:29;;;;;;;12.20;7.78;;;;;;;9.70;89.68;100916.06;5075999;28;20025;-60
2021/10/29 00:30:54;;;;;;;11.27;7.55;;;;;;;9.75;89.25;100916.75;5072879;28;20031;-59
2021/10/29 00:33:20;;;;;;;14.18;7.50;;;;;;;9.83;88.87;100919.91;5075813;28;20111;-59
2021/10/29 00:35:45;;;;;;;11.10;7.10;;;;;;;9.80;89.12;100914.78;5075822;28;20400;-59
2021/10/29 00:38:11;;;;;;;12.10;7.10;;;;;;;9.83;88.47;100917.28;5075875;28;20051;-59
2021/10/29 00:40:39;;;;;;;11.98;7.05;;;;;;;9.82;88.29;100910.25;5068821;28;20182;-60
2021/10/29 00:43:06;;;;;;;11.52;7.25;;;;;;;9.87;88.04;100910.09;5072871;28;20029;-59
2021/10/29 00:45:32;;;;;;;11.75;6.72;;;;;;;9.90;87.93;100912.59;5076169;28;20024;-59
2021/10/29 00:47:58;;;;;;;11.00;6.90;;;;;;;9.89;87.78;100914.38;5075321;28;20029;-59
2021/10/29 00:50:23;;;;;;;11.13;6.90;;;;;;;9.89;87.26;100909.09;5073959;28;20483;-63
2021/10/29 00:52:48;;;;;;;11.13;6.68;;;;;;;9.92;87.45;100908.09;5073914;28;20067;-63
2021/10/29 00:55:15;;;;;;;10.77;6.60;;;;;;;9.96;87.28;100900.00;5075527;28;20021;-59
2021/10/29 00:57:41;;;;;;;10.93;6.65;;;;;;;10.00;87.01;100903.38;5075484;28;20054;-60
2021/10/29 01:00:07;;;;;;;11.40;6.18;;;;;;;10.04;86.64;100902.31;5075419;28;20388;-60
2021/10/29 01:02:33;;;;;;;11.30;6.53;;;;;;;10.05;86.26;100897.88;5071874;28;20021;-59
2021/10/29 01:04:58;;;;;;;10.07;6.32;;;;;;;10.06;86.43;100899.59;5075260;28;20028;-59
2021/10/29 01:07:24;;;;;;;10.63;6.25;;;;;;;10.07;86.32;100899.53;5075432;28;20024;-59
2021/10/29 01:09:50;;;;;;;9.55;5.88;;;;;;;10.09;85.92;100895.06;5075325;28;20039;-59
2021/10/29 01:12:15;;;;;;;10.55;6.45;;;;;;;10.11;85.82;100900.28;5061271;28;20030;-59
2021/10/29 01:14:41;;;;;;;11.95;6.50;;;;;;;10.08;85.69;100890.69;5053812;28;20025;-60
2021/10/29 01:17:07;;;;;;;10.18;6.55;;;;;;;10.07;85.84;100896.03;5055079;28;20078;-60
2021/10/29 01:19:33;;;;;;;11.93;6.32;;;;;;;10.06;85.81;100889.03;5054891;28;20035;-59
2021/10/29 01:22:02;;;;;;;10.15;6.05;;;;;;;10.07;85.96;100885.47;5055148;28;20345;-62
2021/10/29 01:24:28;;;;;;;12.52;6.50;;;;;;;10.08;85.45;100874.81;5057095;28;20408;-59
2021/10/29 01:26:53;;;;;;;10.18;6.18;;;;;;;10.10;85.66;100878.25;5056017;28;20040;-60
2021/10/29 01:29:20;;;;;;;9.80;6.00;;;;;;;10.15;85.11;100878.91;5054717;28;20116;-59
2021/10/29 01:31:45;;;;;;;10.85;6.30;;;;;;;10.17;85.04;100881.50;5056023;28;20013;-60
2021/10/29 01:34:11;;;;;;;9.70;5.78;;;;;;;10.17;84.83;100868.25;5055461;28;20067;-60
2021/10/29 01:36:36;;;;;;;9.00;6.15;;;;;;;10.19;84.75;100870.84;5054650;28;20029;-60
2021/10/29 01:39:02;;;;;;;10.85;6.18;;;;;;;10.18;84.58;100862.06;5055070;28;20127;-59
2021/10/29 01:41:28;;;;;;;9.50;5.90;;;;;;;10.19;84.96;100870.84;5054749;28;20442;-60
2021/10/29 01:43:53;;;;;;;11.18;6.75;;;;;;;10.21;84.45;100864.56;5053700;28;20443;-62
2021/10/29 01:46:19;;;;;;;10.85;6.53;;;;;;;10.23;84.61;100862.72;5054546;28;20029;-59
2021/10/29 01:48:47;;;;;;;8.13;5.65;;;;;;;10.24;84.17;100858.25;5054459;28;20362;-59
2021/10/29 01:51:13;;;;;;;11.95;6.20;;;;;;;10.23;84.08;100844.19;5054161;28;20032;-60
2021/10/29 01:53:39;;;;;;;11.45;6.30;;;;;;;10.20;84.80;100852.25;5054117;28;20139;-60
2021/10/29 01:56:05;;;;;;;10.63;6.32;;;;;;;10.20;84.48;100844.31;5054137;28;20091;-60
2021/10/29 01:58:31;;;;;;;11.50;6.13;;;;;;;10.19;84.83;100845.22;5054292;28;20060;-59
2021/10/29 02:00:56;;;;;;;10.00;5.95;;;;;;;10.19;84.93;100834.63;5054185;28;20059;-60
2021/10/29 02:03:22;;;;;;;11.98;6.32;;;;;;;10.16;84.79;100832.13;5053757;28;20021;-62
2021/10/29 02:05:47;;;;;;;11.23;5.88;;;;;;;10.15;84.83;100833.06;5053497;28;20083;-60
2021/10/29 02:08:12;;;;;;;11.00;6.55;;;;;;;10.12;84.91;100828.75;5054326;28;20021;-60
2021/10/29 02:10:38;;;;;;;10.00;6.50;;;;;;;10.14;84.64;100823.41;5054139;28;20037;-62
2021/10/29 02:13:04;;;;;;;11.20;6.63;;;;;;;10.16;84.59;100822.41;5054143;28;20055;-60
2021/10/29 02:15:29;;;;;;;10.35;6.03;;;;;;;10.19;84.18;100817.91;5053216;28;20033;-60
2021/10/29 02:17:54;;;;;;;12.05;6.70;;;;;;;10.20;83.78;100823.13;5053761;28;20029;-60
2021/10/29 02:20:20;;;;;;;9.48;5.80;;;;;;;10.25;83.92;100818.50;5053634;28;20469;-60
2021/10/29 02:22:45;;;;;;;11.73;6.10;;;;;;;10.26;83.72;100820.22;5053943;28;20033;-62
2021/10/29 02:25:10;;;;;;;9.75;6.43;;;;;;;10.26;83.79;100814.94;5053349;28;20028;-62
2021/10/29 02:27:36;;;;;;;9.73;5.90;;;;;;;10.26;83.85;100804.34;5053484;28;20071;-60
2021/10/29 02:30:01;;;;;;;10.27;6.30;;;;;;;10.28;83.33;100813.09;5053783;28;20032;-60
2021/10/29 02:32:27;;;;;;;10.77;5.60;;;;;;;10.26;83.67;100812.28;5053291;28;20068;-60
2021/10/29 02:34:53;;;;;;;10.07;6.28;;;;;;;10.26;83.60;100811.44;5053382;28;20037;-60
2021/10/29 02:37:18;;;;;;;10.48;5.97;;;;;;;10.21;83.65;100808.97;5052185;28;20522;-60
2021/10/29 02:39:43;;;;;;;9.32;6.00;;;;;;;10.20;83.83;100812.53;5053288;28;20059;-59
2021/10/29 02:42:09;;;;;;;9.43;6.03;;;;;;;10.16;84.09;100801.22;5053532;28;20086;-62
2021/10/29 02:44:35;;;;;;;11.20;6.00;;;;;;;10.22;83.63;100809.81;5053506;28;20025;-60
2021/10/29 02:47:00;;;;;;;11.15;6.35;;;;;;;10.22;83.67;100815.13;5052780;28;20036;-61
2021/10/29 02:49:25;;;;;;;12.00;6.20;;;;;;;10.21;83.56;100798.41;5052690;28;20037;-59
2021/10/29 02:51:51;;;;;;;10.48;6.28;;;;;;;10.22;83.71;100796.59;5052983;28;20021;-61
2021/10/29 02:54:16;;;;;;;9.32;5.93;;;;;;;10.21;83.84;100795.75;5052881;28;20032;-62
2021/10/29 02:56:41;;;;;;;11.65;6.38;;;;;;;10.21;83.75;100793.09;5053020;28;20017;-62
2021/10/29 02:59:07;;;;;;;11.43;6.05;;;;;;;10.21;83.63;100798.41;5052604;28;20033;-62
2021/10/29 03:01:32;;;;;;;10.80;6.30;;;;;;;10.21;83.77;100801.03;5053333;28;20040;-63
2021/10/29 03:03:57;;;;;;;9.55;5.85;;;;;;;10.22;83.51;100799.25;5053036;28;20040;-63
2021/10/29 03:06:22;;;;;;;9.80;6.03;;;;;;;10.22;83.34;100788.66;5052962;28;20025;-60
2021/10/29 03:08:48;;;;;;;9.95;5.85;;;;;;;10.23;83.49;100790.38;5052290;28;20037;-59
2021/10/29 03:11:13;;;;;;;10.98;6.20;;;;;;;10.19;83.61;100780.88;5052449;28;20046;-59
2021/10/29 03:13:39;;;;;;;9.57;6.03;;;;;;;10.18;83.54;100785.31;5052988;28;20096;-59
2021/10/29 03:16:05;;;;;;;11.75;6.03;;;;;;;10.20;83.46;100775.50;5053155;28;20021;-60
2021/10/29 03:18:30;;;;;;;12.30;6.00;;;;;;;10.20;83.50;100783.44;5052257;28;20036;-60
2021/10/29 03:20:55;;;;;;;8.90;6.20;;;;;;;10.21;83.57;100777.22;5052212;28;20029;-60
2021/10/29 03:23:21;;;;;;;11.50;5.97;;;;;;;10.23;83.71;100777.16;5052410;28;20025;-60
2021/10/29 03:25:46;;;;;;;13.25;6.32;;;;;;;10.23;83.33;100772.72;5052814;28;20075;-62
2021/10/29 03:28:12;;;;;;;10.38;6.00;;;;;;;10.22;83.47;100778.94;5052968;28;20021;-60
2021/10/29 03:30:38;;;;;;;9.95;5.78;;;;;;;10.28;83.13;100776.03;5051553;28;20068;-60
2021/10/29 03:33:04;;;;;;;11.55;6.25;;;;;;;10.24;83.26;100765.63;5051770;28;20025;-63
2021/10/29 03:35:29;;;;;;;10.05;6.07;;;;;;;10.25;83.57;100772.66;5052226;28;20060;-58
2021/10/29 03:45:56;;;;;;;13.23;6.28;;;;;;;10.27;83.33;100763.72;5052745;28;20036;-61
2021/10/29 03:56:40;;;;;;;11.05;6.60;;;;;;;10.16;83.91;100768.63;4969983;28;20038;-62
2021/10/29 03:59:06;;;;;;;11.00;6.70;;;;;;;10.13;84.12;100759.03;4970854;28;20078;-59
2021/10/29 04:01:33;;;;;;;11.63;6.43;;;;;;;10.15;83.79;100778.38;4971532;28;20099;-62
2021/10/29 04:03:58;;;;;;;11.23;5.90;;;;;;;10.17;83.68;100767.72;4970428;28;20070;-63
2021/10/29 04:06:24;;;;;;;11.30;6.32;;;;;;;10.13;83.83;100763.47;4970761;28;20155;-62
2021/10/29 04:08:49;;;;;;;11.82;5.78;;;;;;;10.14;83.77;100767.81;4970940;28;20669;-63
2021/10/29 04:11:20;;;;;;;9.48;6.35;;;;;;;10.13;84.08;100758.19;4969681;28;20049;-61
2021/10/29 04:13:45;;;;;;;11.43;6.50;;;;;;;10.10;83.97;100764.47;4970539;28;20581;-63
2021/10/29 04:16:11;;;;;;;10.68;6.82;;;;;;;10.13;84.22;100760.84;4970571;28;20039;-62
2021/10/29 04:18:37;;;;;;;12.23;6.00;;;;;;;10.12;84.14;100764.41;4970387;28;20035;-60
2021/10/29 04:21:03;;;;;;;13.23;6.05;;;;;;;10.10;84.48;100761.84;4969526;28;20070;-63
2021/10/29 04:23:29;;;;;;;10.40;6.28;;;;;;;10.13;83.93;100753.75;4967452;28;20035;-60
2021/10/29 04:25:55;;;;;;;11.43;6.18;;;;;;;10.14;84.33;100754.59;4971359;28;20043;-60
2021/10/29 04:28:20;;;;;;;11.48;6.30;;;;;;;10.15;84.22;100749.25;4971746;28;20045;-60
2021/10/29 04:30:46;;;;;;;10.57;6.20;;;;;;;10.16;83.99;100744.81;4971664;28;20462;-62
2021/10/29 04:33:13;;;;;;;10.90;6.28;;;;;;;10.17;83.84;100735.94;5021864;28;20037;-63
2021/10/29 04:35:40;;;;;;;11.38;6.55;;;;;;;10.22;83.60;100728.66;5048815;28;20045;-59
2021/10/29 04:38:11;;;;;;;10.45;6.35;;;;;;;10.23;83.74;100745.38;5032593;28;20051;-63
2021/10/29 04:40:38;;;;;;;11.30;6.32;;;;;;;10.19;83.68;100728.78;5057165;28;20032;-60
2021/10/29 04:43:06;;;;;;;10.98;6.07;;;;;;;10.21;83.65;100731.38;5072828;28;20103;-61
2021/10/29 04:45:32;;;;;;;12.80;6.43;;;;;;;10.19;84.03;100727.94;5070489;28;20028;-63
2021/10/29 04:47:58;;;;;;;11.07;6.18;;;;;;;10.15;83.89;100732.50;5072402;28;20071;-60
2021/10/29 04:50:23;;;;;;;11.32;6.20;;;;;;;10.13;84.19;100731.72;5070549;28;20052;-63
2021/10/29 04:52:49;;;;;;;9.73;6.32;;;;;;;10.16;84.15;100719.19;5072263;28;20035;-60
2021/10/29 04:55:14;;;;;;;10.40;5.95;;;;;;;10.15;83.95;100717.50;5073710;28;20024;-61
2021/10/29 04:57:39;;;;;;;13.18;5.90;;;;;;;10.17;84.25;100712.97;5074191;28;20039;-62
2021/10/29 05:00:07;;;;;;;14.73;6.85;;;;;;;10.18;84.02;100716.50;5075785;28;20024;-63
2021/10/29 05:02:33;;;;;;;11.18;6.07;;;;;;;10.22;83.97;100717.19;5074225;28;20051;-61
2021/10/29 05:05:00;;;;;;;16.50;6.07;;;;;;;10.22;83.45;100710.13;5075917;28;20020;-63
2021/10/29 05:07:25;;;;;;;13.13;5.88;;;;;;;10.24;83.63;100715.34;5074116;28;20464;-62
2021/10/29 05:09:50;;;;;;;8.90;6.18;;;;;;;10.22;83.63;100720.72;5075934;28;20032;-63
2021/10/29 05:12:15;;;;;;;11.55;6.30;;;;;;;10.18;83.85;100716.50;5073468;28;20099;-62
2021/10/29 05:14:41;;;;;;;11.32;6.07;;;;;;;10.19;83.97;100712.06;5075645;28;20075;-63
2021/10/29 05:17:06;;;;;;;10.23;5.93;;;;;;;10.16;83.71;100716.56;5075134;28;20052;-63
2021/10/29 05:19:31;;;;;;;8.93;5.93;;;;;;;10.19;83.35;100704.97;5070225;28;20017;-61
2021/10/29 05:21:57;;;;;;;9.25;5.50;;;;;;;10.19;83.69;100709.41;5056551;28;20521;-62
2021/10/29 05:24:22;;;;;;;11.30;5.65;;;;;;;10.19;83.67;100704.13;5055220;28;20037;-63
2021/10/29 05:26:48;;;;;;;12.45;6.10;;;;;;;10.16;83.64;100705.13;5055056;28;20438;-62
2021/10/29 05:29:13;;;;;;;10.40;5.75;;;;;;;10.15;83.62;100700.75;5066658;28;20496;-62
2021/10/29 05:31:39;;;;;;;9.80;5.88;;;;;;;10.14;83.65;100705.19;5075553;28;20479;-63
2021/10/29 05:34:05;;;;;;;10.50;5.60;;;;;;;10.15;83.64;100698.09;5073164;28;20480;-63
2021/10/29 05:36:31;;;;;;;9.20;5.78;;;;;;;10.16;83.58;100697.19;5075289;28;20028;-62
2021/10/29 05:38:56;;;;;;;10.75;6.00;;;;;;;10.17;83.41;100705.03;5073419;28;20419;-63
2021/10/29 05:41:21;;;;;;;12.30;5.95;;;;;;;10.15;83.60;100700.75;5075088;28;20036;-62
2021/10/29 05:43:47;;;;;;;10.52;6.30;;;;;;;10.17;83.89;100699.75;5073154;28;20025;-63
2021/10/29 05:46:12;;;;;;;12.13;5.90;;;;;;;10.17;83.81;100696.25;5074963;28;20053;-62
2021/10/29 05:48:38;;;;;;;10.25;5.70;;;;;;;10.15;83.81;100698.09;5068830;28;20392;-63
2021/10/29 05:51:11;;;;;;;10.10;6.10;;;;;;;10.11;84.37;100693.88;5069716;28;20071;-63
2021/10/29 05:56:03;;;;;;;19.52;6.30;;;;;;;10.02;84.60;100687.22;5074173;28;20520;-60
2021/10/29 05:58:29;;;;;;;11.52;6.03;;;;;;;9.97;84.72;100690.09;5074459;28;20119;-60
2021/10/29 06:00:54;;;;;;;10.27;6.18;;;;;;;9.96;84.92;100690.13;5072986;28;20460;-60
2021/10/29 06:03:20;;;;;;;9.77;5.75;;;;;;;9.96;85.05;100687.50;5074912;28;20107;-60
2021/10/29 06:05:45;;;;;;;11.40;6.28;;;;;;;9.96;84.73;100700.72;5072429;28;20032;-62
2021/10/29 06:08:10;;;;;;;10.98;5.78;;;;;;;9.98;85.02;100688.28;5074060;28;20098;-62
2021/10/29 06:10:36;;;;;;;10.02;6.45;;;;;;;9.98;84.52;100686.50;5072831;28;20028;-64
2021/10/29 06:13:01;;;;;;;11.73;5.80;;;;;;;9.96;84.68;100688.38;5074237;28;20025;-61
2021/10/29 06:15:27;;;;;;;11.68;6.05;;;;;;;9.96;85.14;100688.38;5072780;28;20418;-61
2021/10/29 06:17:52;;;;;;;10.40;5.80;;;;;;;10.06;84.35;100677.38;5074355;28;20040;-63
2021/10/29 06:20:18;;;;;;;10.18;5.85;;;;;;;10.11;84.25;100678.84;5072879;28;20032;-60
2021/10/29 06:22:52;;;;;;;9.95;5.53;;;;;;;10.18;83.61;100676.81;5064321;28;20044;-59
2021/10/29 06:25:20;;;;;;;10.00;5.50;;;;;;;10.19;83.53;100672.38;5055455;28;20035;-60
2021/10/29 06:28:12;;;;;;;9.25;5.45;;;;;;;10.17;83.61;100681.22;5071893;28;20036;-63
2021/10/29 06:30:40;;;;;;;9.70;5.75;;;;;;;10.21;83.62;100684.59;5063363;28;20032;-59
2021/10/29 06:33:07;;;;;;;13.55;5.65;;;;;;;10.25;83.24;100680.88;5053886;28;20492;-60
2021/10/29 06:35:32;;;;;;;10.95;6.00;;;;;;;10.32;83.11;100686.78;5053988;28;20116;-63
2021/10/29 06:37:58;;;;;;;13.20;6.05;;;;;;;10.39;82.13;100697.97;5068332;28;20140;-64
2021/10/29 06:40:27;;;;;;;12.90;6.05;;;;;;;10.38;82.67;100686.50;5073863;28;20051;-64
2021/10/29 06:43:00;;;;;;;11.27;6.22;;;;;;;10.40;82.83;100684.66;5072115;28;20533;-59
2021/10/29 07:42:07;;;;;;;8.07;5.47;;;;;;;10.89;80.97;100646.16;5052981;28;20063;-58
2021/10/29 07:44:34;;;;;;;10.50;5.55;;;;;;;10.92;80.87;100657.47;5053266;28;20048;-61
2021/10/29 07:46:59;;;;;;;10.82;5.43;;;;;;;10.98;80.47;100649.22;5072630;28;20032;-62
2021/10/29 07:49:28;;;;;;;11.88;5.20;;;;;;;11.03;80.13;100654.25;5066293;28;20032;-58
2021/10/29 07:51:58;;;;;;;9.75;5.57;;;;;;;11.06;79.74;100643.53;5049929;28;20119;-61
2021/10/29 07:54:25;;;;;;;9.00;5.32;;;;;;;11.09;79.73;100643.38;5032873;28;20029;-60
2021/10/29 07:56:50;;;;;;;16.23;6.00;;;;;;;11.15;79.58;100639.53;5067816;28;20071;-59
2021/10/29 07:59:17;;;;;;;9.90;5.05;;;;;;;11.22;79.25;100630.34;5071884;28;20452;-60
2021/10/29 08:01:42;;;;;;;9.45;5.10;;;;;;;11.28;79.00;100634.50;5072153;28;20063;-62
2021/10/29 08:04:08;;;;;;;11.35;6.10;;;;;;;11.32;79.08;100641.34;5071783;28;20048;-61
2021/10/29 08:06:34;;;;;;;7.32;4.90;;;;;;;11.36;78.37;100629.66;5071291;28;20111;-61
2021/10/29 08:09:01;;;;;;;8.85;5.40;;;;;;;11.46;78.42;100635.34;5072528;28;20033;-60
2021/10/29 08:11:27;;;;;;;8.45;5.15;;;;;;;11.54;77.93;100641.09;5071882;28;20040;-59
2021/10/29 08:13:53;;;;;;;8.52;5.10;;;;;;;11.61;77.87;100631.88;5071902;28;20039;-57
2021/10/29 08:16:18;;;;;;;8.88;5.13;;;;;;;11.69;77.63;100625.31;5071324;28;20418;-59
2021/10/29 08:18:45;;;;;;;10.20;5.05;;;;;;;11.77;77.38;100625.75;5071371;28;20036;-62
2021/10/29 08:21:13;;;;;;;9.48;4.85;;;;;;;11.84;77.51;100624.50;5078370;28;20028;-60
2021/10/29 08:23:40;;;;;;;12.48;5.25;;;;;;;12.12;76.22;100617.72;5079782;28;20047;-57
2021/10/29 08:26:05;;;;;;;8.38;5.20;;;;;;;12.72;74.06;100618.81;5072373;28;20036;-62
2021/10/29 08:28:31;;;;;;;11.82;5.20;;;;;;;13.39;71.10;100608.72;5072059;28;20511;-60
2021/10/29 08:30:56;;;;;;;10.82;4.80;;;;;;;14.12;67.89;100608.69;5075256;28;20032;-54
2021/10/29 08:33:23;;;;;;;13.15;5.05;;;;;;;14.70;65.83;100601.44;5079496;28;20024;-61
2021/10/29 08:35:49;;;;;;;10.00;5.35;;;;;;;15.32;63.39;100594.63;5075797;28;20201;-60
2021/10/29 08:38:16;;;;;;;12.32;5.40;;;;;;;15.68;62.19;100601.06;5075442;28;20111;-61
2021/10/29 08:40:41;;;;;;;7.65;4.78;;;;;;;16.26;59.64;100601.41;5075795;28;20059;-61
2021/10/29 08:43:07;;;;;;;9.23;5.00;;;;;;;16.62;58.48;100604.16;5075998;28;20056;-63
2021/10/29 08:45:32;;;;;;;9.35;4.72;;;;;;;16.98;57.30;100597.06;5092737;28;20028;-60
2021/10/29 08:47:58;;;;;;;7.75;4.50;;;;;;;17.39;55.50;100589.50;5077626;28;20431;-58
2021/10/29 08:50:24;;;;;;;8.35;4.40;;;;;;;17.16;55.81;100593.00;5075782;28;20031;-59
2021/10/29 08:52:49;;;;;;;8.38;4.78;;;;;;;17.26;55.75;100592.28;5075022;28;20032;-59
2021/10/29 08:55:23;;;;;;;9.05;4.57;;;;;;;17.34;55.53;100603.22;5075415;28;20028;-58
2021/10/29 08:57:49;;;;;;;7.43;4.75;;;;;;;17.61;54.87;100597.56;5064748;28;20028;-57
2021/10/29 09:00:19;;;;;;;7.88;4.30;;;;;;;17.57;54.44;100595.25;5075349;28;20071;-59
2021/10/29 09:02:57;;;;;;;8.57;4.70;;;;;;;17.62;54.31;100585.88;5074737;28;20031;-60
2021/10/29 09:05:29;;;;;;;8.95;4.72;;;;;;;17.79;54.20;100597.09;5075933;28;20036;-55
2021/10/29 09:08:39;;;;;;;11.15;4.78;;;;;;;18.05;53.22;100583.47;5074572;28;20046;-59
2021/10/29 09:33:54;;;;;;;7.22;4.18;;;;;;;18.77;50.71;100571.31;5067879;28;20036;-61
2021/10/29 09:36:31;;;;;;;7.30;4.35;;;;;;;18.96;50.89;100574.22;5074459;28;20117;-57
2021/10/29 09:38:58;;;;;;;8.27;4.20;;;;;;;19.31;49.84;100564.97;5070229;28;20036;-60
2021/10/29 09:41:24;;;;;;;7.28;3.80;;;;;;;19.57;48.88;100561.00;5072140;28;20025;-57
2021/10/29 09:44:01;;;;;;;8.77;3.80;;;;;;;19.62;48.85;100551.53;5080961;28;20400;-56
2021/10/29 09:46:46;;;;;;;7.75;3.67;;;;;;;19.61;47.98;100555.19;5074257;28;20028;-59
2021/10/29 09:49:20;;;;;;;7.38;4.03;;;;;;;19.61;48.22;100552.53;5070841;28;20458;-61
2021/10/29 09:54:45;;;;;;;8.80;4.00;;;;;;;19.69;48.33;100551.00;5000859;28;20038;-58
2021/10/29 09:57:11;;;;;;;8.00;4.30;;;;;;;19.60;47.74;100544.59;4989196;28;20038;-59
2021/10/29 09:59:37;;;;;;;7.10;4.38;;;;;;;19.88;47.42;100544.88;4992089;28;20046;-59
2021/10/29 10:02:05;;;;;;;11.02;4.38;;;;;;;19.55;48.49;100553.06;4991822;28;20383;-61
2021/10/29 10:04:31;;;;;;;9.23;3.72;;;;;;;19.80;48.02;100524.03;4992325;28;20486;-61
2021/10/29 10:06:58;;;;;;;10.52;3.78;;;;;;;19.84;47.78;100544.31;4992243;28;20462;-59
2021/10/29 10:09:24;;;;;;;8.77;3.83;;;;;;;19.94;47.38;100536.28;4992331;28;20033;-59
2021/10/29 10:11:51;;;;;;;7.32;3.70;;;;;;;20.15;47.45;100522.72;4992632;28;20051;-59
2021/10/29 10:14:18;;;;;;;5.95;3.85;;;;;;;20.33;47.27;100517.50;4992151;28;20505;-60
2021/10/29 10:16:45;;;;;;;8.43;3.88;;;;;;;20.50;46.04;100515.13;4991281;28;20054;-61
2021/10/29 10:19:11;;;;;;;13.68;4.00;;;;;;;20.51;45.72;100506.94;4991132;28;20038;-61
2021/10/29 10:21:45;;;;;;;10.48;4.10;;;;;;;20.66;45.14;100510.03;4992024;28;20026;-60
2021/10/29 10:24:16;;;;;;;11.75;4.55;;;;;;;20.94;45.51;100496.72;4990719;28;20065;-61
2021/10/29 10:26:56;;;;;;;;;;;;;;;21.20;44.46;100490.69;4975210;28;20458;-60
2021/10/29 10:29:51;;;;;;;6.50;4.30;;;;;;;20.89;45.48;100489.06;4990205;28;19917;-60
2021/10/29 10:41:29;;;;;;;6.85;3.83;;;;;;;21.06;44.53;100474.03;4991651;28;20102;-60
2021/10/29 10:44:20;;;;;;;7.78;3.90;;;;;;;21.21;45.12;100469.00;4990584;28;20034;-60
2021/10/29 10:46:52;;;;;;;7.38;4.03;;;;;;;21.37;44.77;100452.22;4986909;28;20046;-61
2021/10/29 10:49:31;;;;;;;9.05;3.60;;;;;;;21.23;44.02;100447.31;4990185;28;20512;-61
2021/10/29 10:55:01;;;;;;;8.55;4.10;;;;;;;21.21;44.25;100443.91;4986750;28;20038;-61
2021/10/29 11:05:30;;;;;;;10.77;4.20;;;;;;;21.13;44.83;100441.97;4990890;28;20109;-60
2021/10/29 11:10:57;;;;;;;9.35;3.33;;;;;;;21.64;43.94;100453.25;4991307;28;20097;-60
2021/10/29 11:13:26;;;;;;;7.68;3.53;;;;;;;21.55;43.70;100455.00;5072634;28;20108;-60
2021/10/29 11:16:05;;;;;;;7.40;3.67;;;;;;;21.55;43.68;100451.47;5071619;28;20040;-60
2021/10/29 11:18:34;;;;;;;10.45;4.18;;;;;;;21.37;43.82;100463.00;5072349;28;20067;-58
2021/10/29 11:21:19;;;;;;;9.65;3.60;;;;;;;21.08;44.61;100455.03;5071598;28;20388;-59
2021/10/29 11:23:58;;;;;;;7.10;3.75;;;;;;;21.20;44.10;100442.22;5072059;28;20020;-61
2021/10/29 11:26:25;;;;;;;8.40;3.63;;;;;;;21.45;44.52;100456.84;5071889;28;20033;-57
2021/10/29 11:28:54;;;;;;;6.72;3.88;;;;;;;21.35;44.70;100448.81;5071892;28;20028;-61
2021/10/29 11:31:31;;;;;;;6.65;3.63;;;;;;;21.57;43.73;100450.31;5072294;28;20510;-61
2021/10/29 11:33:59;;;;;;;8.85;3.58;;;;;;;21.52;43.94;100425.63;5072560;28;20128;-59
2021/10/29 11:36:32;;;;;;;13.57;4.00;;;;;;;21.35;44.66;100432.66;5072319;28;20025;-62
2021/10/29 11:38:58;;;;;;;11.13;4.03;;;;;;;21.16;44.39;100430.06;5071547;28;20111;-59
2021/10/29 11:41:31;;;;;;;8.85;3.83;;;;;;;21.40;44.13;100422.28;5072054;28;20078;-62
2021/10/29 11:44:13;;;;;;;7.75;3.75;;;;;;;21.30;44.44;100434.94;5067698;28;20112;-58
2021/10/29 11:46:40;;;;;;;8.13;3.95;;;;;;;21.25;44.09;100411.16;5072093;28;20441;-60
2021/10/29 11:49:08;;;;;;;7.43;3.78;;;;;;;21.14;44.94;100413.19;5071516;28;20078;-61
2021/10/29 11:51:35;;;;;;;8.15;3.80;;;;;;;21.68;43.97;100403.44;5071213;28;20439;-61
2021/10/29 11:54:29;;;;;;;10.40;3.90;;;;;;;21.63;43.84;100416.50;5072041;28;20020;-61
2021/10/29 11:57:22;;;;;;;;;;;;;;;21.60;42.97;100406.06;5071768;28;20387;-59
2021/10/29 12:08:09;;;;;;;8.85;3.72;;;;;;;21.12;44.92;100410.66;5055672;28;20090;-59
2021/10/29 12:10:39;;;;;;;9.75;3.72;;;;;;;21.02;45.55;100391.84;5072104;28;20051;-60
2021/10/29 12:13:05;;;;;;;7.65;3.83;;;;;;;21.40;44.59;100375.66;5072131;28;20025;-59
2021/10/29 12:15:31;;;;;;;7.22;3.72;;;;;;;21.47;44.04;100363.28;5069169;28;20150;-60
2021/10/29 12:18:03;;;;;;;7.75;3.92;;;;;;;21.40;44.14;100354.09;5070414;28;20025;-59
2021/10/29 12:20:37;;;;;;;9.02;4.28;;;;;;;21.07;45.12;100384.16;5070786;28;20448;-57
2021/10/29 12:23:14;;;;;;;9.32;3.47;;;;;;;21.08;44.87;100383.16;5070525;28;20032;-59
2021/10/29 12:25:55;;;;;;;7.97;3.67;;;;;;;21.43;44.59;100370.81;5060725;28;20088;-59
2021/10/29 12:28:34;;;;;;;7.38;3.70;;;;;;;21.43;44.20;100380.72;5072300;28;20068;-55
2021/10/29 12:31:10;;;;;;;7.72;3.63;;;;;;;21.50;44.50;100368.34;5071768;28;20499;-55
2021/10/29 13:01:33;;;;;;;8.13;3.78;;;;;;;19.14;51.31;100324.88;4990584;28;20092;-60
2021/10/29 13:04:07;;;;;;;12.93;3.90;;;;;;;18.72;52.69;100324.97;4989932;28;20121;-60
2021/10/29 13:06:35;;;;;;;6.07;3.85;;;;;;;18.42;53.28;100323.94;4990105;28;20034;-61
2021/10/29 13:09:11;;;;;;;7.65;4.30;;;;;;;18.17;54.43;100317.16;4989517;28;20456;-58
2021/10/29 13:11:43;;;;;;;9.93;3.72;;;;;;;18.06;55.02;100314.56;4990055;28;20062;-58
2021/10/29 13:14:10;;;;;;;8.88;4.30;;;;;;;18.07;55.03;100318.94;4988757;28;20046;-59
2021/10/29 13:16:36;;;;;;;10.20;4.03;;;;;;;17.91;56.04;100322.88;5037051;28;20041;-56
2021/10/29 13:51:59;;;;;;;9.23;3.92;;;;;;;17.18;58.92;100336.00;4991589;28;20445;-59
2021/10/29 13:54:09;;;;;;;8.80;3.83;;;;;;;17.04;58.86;100340.63;4982428;28;20099;-60
2021/10/29 14:28:45;;;;;;;7.05;3.90;;;;;;;15.55;71.93;100392.91;5072558;28;20063;-60
2021/10/29 14:31:29;;;;;;;10.65;4.20;;;;;;;15.27;73.61;100392.25;5073364;28;20024;-59
2021/10/29 14:34:01;;;;;;;10.35;4.30;;;;;;;15.04;76.35;100367.22;5072862;28;20090;-60
2021/10/29 14:36:38;;;;;;;12.05;4.45;;;;;;;14.84;77.00;100387.28;5073356;28;20029;-60
2021/10/29 14:39:09;;;;;;;7.50;4.07;;;;;;;14.75;78.20;100380.78;5073465;28;20028;-60
2021/10/29 14:41:40;;;;;;;7.53;4.45;;;;;;;14.70;78.51;100386.41;5073409;28;20032;-59
2021/10/29 14:44:20;;;;;;;9.57;4.68;;;;;;;14.64;79.17;100378.88;5072236;28;20461;-57
2021/10/29 14:49:26;;;;;;;10.43;4.40;;;;;;;14.55;80.46;100374.13;5073320;28;20039;-58
2021/10/29 14:52:29;;;;;;;7.40;4.20;;;;;;;14.52;79.71;100369.03;5073115;28;20028;-59
2021/10/29 15:00:36;;;;;;;6.60;3.78;;;;;;;14.67;77.01;100393.78;5072124;28;20078;-60
2021/10/29 15:05:53;;;;;;;7.88;3.97;;;;;;;14.73;77.46;100423.53;5071809;28;20031;-58
2021/10/29 15:16:50;;;;;;;7.68;3.80;;;;;;;14.84;76.64;100414.78;5072102;28;20071;-59
2021/10/29 15:33:12;;;;;;;6.03;3.13;;;;;;;14.69;76.67;100394.53;5073177;28;20131;-59
2021/10/29 15:41:20;;;;;;;6.28;3.40;;;;;;;14.56;77.79;100410.47;5072263;28;20133;-56
2021/10/29 15:52:01;;;;;;;6.78;3.13;;;;;;;14.40;77.90;100398.19;5072049;28;20127;-59
2021/10/29 15:54:26;;;;;;;5.10;2.75;;;;;;;14.38;78.36;100412.59;5072669;28;20029;-60
2021/10/29 15:56:58;;;;;;;7.75;2.80;;;;;;;14.34;77.88;100411.09;5071563;28;20025;-60
2021/10/29 16:17:58;;;;;;;4.03;2.50;;;;;;;14.17;78.68;100442.38;5071696;28;20059;-60